Terminal Aerodrome Forecast
Issued by NWS Shreveport, LA

Home | Current Version | Previous Version | Text Only | Print | Product List | Glossary On
Versions: 1 2 3 4 5 6 7 8 9 10 11 12 13 14
000
FTUS44 KSHV 050522
TAFMLU
TAF
KMLU 050522Z 0506/0606 VRB03KT P6SM FEW100 BKN250
     FM051100 VRB03KT P6SM SCT025
      TEMPO 0512/0515 5SM BR BKN025
     FM051500 14010G18KT P6SM SCT040
     FM060000 14004KT P6SM BKN250=

USA.gov is the U.S. government's official web portal to all federal, state and local government web resources and services.